Terminal Aerodrome Forecast
Issued by NWS

Home | Current Version | Previous Version | Text Only | Print | Product List | Glossary On
Versions: 1 2 3 4 5 6 7 8 9 10 11 12 13 14 15 16 17 18
000
FTUS46 KOTX 242337
TAFPUW
TAF
KPUW 242337Z 2500/2524 22005KT P6SM VCSH SCT030 BKN045
     FM250500 25005KT P6SM BKN018 OVC025
     FM250900 26005KT 5SM BR BKN004 OVC010
     FM251400 25006KT P6SM BKN009 OVC020
     FM251600 26008KT P6SM BKN015 OVC025
     FM251800 25006KT P6SM SCT030 BKN060=

USA.gov is the U.S. government's official web portal to all federal, state and local government web resources and services.